sensor_id;sensor_type;location;lat;lon;timestamp;P1;durP1;ratioP1;P2;durP2;ratioP2
21424;SDS011;10873;51.132;16.848;2023-04-25T00:01:47;2.55;;;1.70;;
21424;SDS011;10873;51.132;16.848;2023-04-25T00:04:13;2.53;;;1.90;;
21424;SDS011;10873;51.132;16.848;2023-04-25T00:06:39;2.17;;;1.90;;
21424;SDS011;10873;51.132;16.848;2023-04-25T00:09:05;2.33;;;1.75;;
21424;SDS011;10873;51.132;16.848;2023-04-25T00:11:36;1.80;;;1.70;;
21424;SDS011;10873;51.132;16.848;2023-04-25T00:14:03;2.55;;;1.73;;
21424;SDS011;10873;51.132;16.848;2023-04-25T00:16:31;3.20;;;1.70;;
21424;SDS011;10873;51.132;16.848;2023-04-25T00:18:59;3.38;;;2.00;;
21424;SDS011;10873;51.132;16.848;2023-04-25T00:21:25;3.35;;;1.85;;
21424;SDS011;10873;51.132;16.848;2023-04-25T00:23:51;1.70;;;1.48;;
21424;SDS011;10873;51.132;16.848;2023-04-25T00:26:18;2.33;;;1.70;;
21424;SDS011;10873;51.132;16.848;2023-04-25T00:28:44;2.30;;;1.75;;
21424;SDS011;10873;51.132;16.848;2023-04-25T00:31:10;3.13;;;1.90;;
21424;SDS011;10873;51.132;16.848;2023-04-25T00:33:37;3.05;;;2.00;;
21424;SDS011;10873;51.132;16.848;2023-04-25T00:36:04;2.45;;;1.60;;
21424;SDS011;10873;51.132;16.848;2023-04-25T00:38:30;2.78;;;1.80;;
21424;SDS011;10873;51.132;16.848;2023-04-25T00:40:57;2.00;;;1.30;;
21424;SDS011;10873;51.132;16.848;2023-04-25T00:43:23;3.10;;;2.00;;
21424;SDS011;10873;51.132;16.848;2023-04-25T00:45:50;2.67;;;1.80;;
21424;SDS011;10873;51.132;16.848;2023-04-25T00:48:17;3.10;;;1.60;;
21424;SDS011;10873;51.132;16.848;2023-04-25T00:50:51;1.88;;;1.73;;
21424;SDS011;10873;51.132;16.848;2023-04-25T00:53:19;2.53;;;1.60;;
21424;SDS011;10873;51.132;16.848;2023-04-25T00:55:45;1.77;;;1.45;;
21424;SDS011;10873;51.132;16.848;2023-04-25T00:58:11;2.22;;;1.50;;
21424;SDS011;10873;51.132;16.848;2023-04-25T01:00:37;3.25;;;1.80;;
21424;SDS011;10873;51.132;16.848;2023-04-25T01:03:04;1.88;;;1.40;;
21424;SDS011;10873;51.132;16.848;2023-04-25T01:05:31;2.28;;;1.58;;
21424;SDS011;10873;51.132;16.848;2023-04-25T01:07:58;2.20;;;1.70;;
21424;SDS011;10873;51.132;16.848;2023-04-25T01:10:25;2.33;;;1.58;;
21424;SDS011;10873;51.132;16.848;2023-04-25T01:12:50;3.05;;;1.70;;
21424;SDS011;10873;51.132;16.848;2023-04-25T01:15:17;1.88;;;1.45;;
21424;SDS011;10873;51.132;16.848;2023-04-25T01:17:43;2.33;;;1.67;;
21424;SDS011;10873;51.132;16.848;2023-04-25T01:20:10;2.30;;;1.80;;
21424;SDS011;10873;51.132;16.848;2023-04-25T01:22:38;2.13;;;1.52;;
21424;SDS011;10873;51.132;16.848;2023-04-25T01:25:06;1.98;;;1.77;;
21424;SDS011;10873;51.132;16.848;2023-04-25T01:27:33;2.65;;;1.50;;
21424;SDS011;10873;51.132;16.848;2023-04-25T01:29:59;1.95;;;1.63;;
21424;SDS011;10873;51.132;16.848;2023-04-25T01:32:25;2.65;;;1.67;;
21424;SDS011;10873;51.132;16.848;2023-04-25T01:34:52;2.75;;;1.75;;
21424;SDS011;10873;51.132;16.848;2023-04-25T01:37:18;2.15;;;1.75;;
21424;SDS011;10873;51.132;16.848;2023-04-25T01:39:46;3.13;;;1.70;;
21424;SDS011;10873;51.132;16.848;2023-04-25T01:42:12;2.67;;;1.52;;
21424;SDS011;10873;51.132;16.848;2023-04-25T01:44:38;2.65;;;1.70;;
21424;SDS011;10873;51.132;16.848;2023-04-25T01:47:04;2.38;;;1.60;;
21424;SDS011;10873;51.132;16.848;2023-04-25T01:49:31;1.88;;;1.60;;
21424;SDS011;10873;51.132;16.848;2023-04-25T01:51:57;3.13;;;1.58;;
21424;SDS011;10873;51.132;16.848;2023-04-25T01:54:23;2.08;;;1.55;;
21424;SDS011;10873;51.132;16.848;2023-04-25T01:56:51;1.92;;;1.70;;
21424;SDS011;10873;51.132;16.848;2023-04-25T01:59:18;1.77;;;1.50;;
21424;SDS011;10873;51.132;16.848;2023-04-25T02:01:47;1.20;;;1.10;;
21424;SDS011;10873;51.132;16.848;2023-04-25T02:04:13;2.63;;;1.55;;
21424;SDS011;10873;51.132;16.848;2023-04-25T02:06:39;2.03;;;1.60;;
21424;SDS011;10873;51.132;16.848;2023-04-25T02:09:05;2.08;;;1.35;;
21424;SDS011;10873;51.132;16.848;2023-04-25T02:11:31;2.63;;;1.75;;
21424;SDS011;10873;51.132;16.848;2023-04-25T02:13:58;2.03;;;1.52;;
21424;SDS011;10873;51.132;16.848;2023-04-25T02:16:24;2.08;;;1.60;;
21424;SDS011;10873;51.132;16.848;2023-04-25T02:18:50;2.08;;;1.70;;
21424;SDS011;10873;51.132;16.848;2023-04-25T02:21:18;3.67;;;1.75;;
21424;SDS011;10873;51.132;16.848;2023-04-25T02:23:44;1.70;;;1.33;;
21424;SDS011;10873;51.132;16.848;2023-04-25T02:26:13;1.98;;;1.77;;
21424;SDS011;10873;51.132;16.848;2023-04-25T02:28:40;3.17;;;2.17;;
21424;SDS011;10873;51.132;16.848;2023-04-25T02:31:07;2.47;;;2.03;;
21424;SDS011;10873;51.132;16.848;2023-04-25T02:33:33;4.18;;;2.05;;
21424;SDS011;10873;51.132;16.848;2023-04-25T02:35:59;2.60;;;2.00;;
21424;SDS011;10873;51.132;16.848;2023-04-25T02:38:25;2.05;;;1.48;;
21424;SDS011;10873;51.132;16.848;2023-04-25T02:40:51;2.50;;;1.98;;
21424;SDS011;10873;51.132;16.848;2023-04-25T02:43:17;1.67;;;1.58;;
21424;SDS011;10873;51.132;16.848;2023-04-25T02:45:43;2.35;;;1.38;;
21424;SDS011;10873;51.132;16.848;2023-04-25T02:48:10;2.88;;;1.50;;
21424;SDS011;10873;51.132;16.848;2023-04-25T02:50:37;3.97;;;1.40;;
21424;SDS011;10873;51.132;16.848;2023-04-25T02:53:02;1.98;;;1.65;;
21424;SDS011;10873;51.132;16.848;2023-04-25T02:55:29;1.80;;;1.55;;
21424;SDS011;10873;51.132;16.848;2023-04-25T02:57:54;1.98;;;1.40;;
21424;SDS011;10873;51.132;16.848;2023-04-25T03:00:21;1.52;;;1.40;;
21424;SDS011;10873;51.132;16.848;2023-04-25T03:02:47;1.80;;;1.50;;
21424;SDS011;10873;51.132;16.848;2023-04-25T03:05:15;3.05;;;1.45;;
21424;SDS011;10873;51.132;16.848;2023-04-25T03:07:41;2.13;;;1.33;;
21424;SDS011;10873;51.132;16.848;2023-04-25T03:10:09;2.83;;;1.50;;
21424;SDS011;10873;51.132;16.848;2023-04-25T03:12:35;1.88;;;1.33;;
21424;SDS011;10873;51.132;16.848;2023-04-25T03:15:01;4.20;;;1.38;;
21424;SDS011;10873;51.132;16.848;2023-04-25T03:17:28;3.17;;;1.35;;
21424;SDS011;10873;51.132;16.848;2023-04-25T03:19:54;3.88;;;1.77;;
21424;SDS011;10873;51.132;16.848;2023-04-25T03:22:22;6.97;;;2.22;;
21424;SDS011;10873;51.132;16.848;2023-04-25T03:24:47;5.60;;;2.15;;
21424;SDS011;10873;51.132;16.848;2023-04-25T03:27:13;4.47;;;1.70;;
21424;SDS011;10873;51.132;16.848;2023-04-25T03:29:39;4.60;;;1.88;;
21424;SDS011;10873;51.132;16.848;2023-04-25T03:32:05;8.48;;;1.85;;
21424;SDS011;10873;51.132;16.848;2023-04-25T03:34:31;4.00;;;1.45;;
21424;SDS011;10873;51.132;16.848;2023-04-25T03:36:57;5.05;;;1.65;;
21424;SDS011;10873;51.132;16.848;2023-04-25T03:39:25;11.18;;;1.65;;
21424;SDS011;10873;51.132;16.848;2023-04-25T03:41:51;4.25;;;1.73;;
21424;SDS011;10873;51.132;16.848;2023-04-25T03:44:17;5.50;;;1.67;;
21424;SDS011;10873;51.132;16.848;2023-04-25T03:46:43;5.50;;;1.67;;
21424;SDS011;10873;51.132;16.848;2023-04-25T03:49:09;6.97;;;1.98;;
21424;SDS011;10873;51.132;16.848;2023-04-25T03:51:35;9.20;;;2.00;;
21424;SDS011;10873;51.132;16.848;2023-04-25T03:54:01;5.50;;;1.88;;
21424;SDS011;10873;51.132;16.848;2023-04-25T03:56:29;5.95;;;1.75;;
21424;SDS011;10873;51.132;16.848;2023-04-25T03:58:55;4.60;;;1.60;;
21424;SDS011;10873;51.132;16.848;2023-04-25T04:01:21;7.32;;;1.75;;
21424;SDS011;10873;51.132;16.848;2023-04-25T04:03:47;3.15;;;1.77;;
21424;SDS011;10873;51.132;16.848;2023-04-25T04:06:13;1.75;;;1.30;;
21424;SDS011;10873;51.132;16.848;2023-04-25T04:08:40;3.90;;;2.05;;
21424;SDS011;10873;51.132;16.848;2023-04-25T04:11:06;4.72;;;1.55;;
21424;SDS011;10873;51.132;16.848;2023-04-25T04:13:33;4.75;;;1.63;;
21424;SDS011;10873;51.132;16.848;2023-04-25T04:15:59;2.22;;;1.38;;
21424;SDS011;10873;51.132;16.848;2023-04-25T04:18:25;4.40;;;1.48;;
21424;SDS011;10873;51.132;16.848;2023-04-25T04:20:51;2.95;;;1.77;;
21424;SDS011;10873;51.132;16.848;2023-04-25T04:23:17;2.83;;;1.40;;
21424;SDS011;10873;51.132;16.848;2023-04-25T04:25:44;3.13;;;1.35;;
21424;SDS011;10873;51.132;16.848;2023-04-25T04:28:10;2.58;;;1.50;;
21424;SDS011;10873;51.132;16.848;2023-04-25T04:30:37;2.55;;;1.50;;
21424;SDS011;10873;51.132;16.848;2023-04-25T04:33:04;2.08;;;1.30;;
21424;SDS011;10873;51.132;16.848;2023-04-25T04:35:30;1.85;;;1.40;;
21424;SDS011;10873;51.132;16.848;2023-04-25T04:37:56;3.85;;;1.73;;
21424;SDS011;10873;51.132;16.848;2023-04-25T04:40:22;3.60;;;1.27;;
21424;SDS011;10873;51.132;16.848;2023-04-25T04:42:48;4.65;;;1.52;;
21424;SDS011;10873;51.132;16.848;2023-04-25T04:45:15;2.20;;;1.48;;
21424;SDS011;10873;51.132;16.848;2023-04-25T04:47:42;3.70;;;1.55;;
21424;SDS011;10873;51.132;16.848;2023-04-25T04:50:09;3.60;;;1.33;;
21424;SDS011;10873;51.132;16.848;2023-04-25T04:52:35;5.35;;;1.50;;
21424;SDS011;10873;51.132;16.848;2023-04-25T04:55:03;2.63;;;1.50;;
21424;SDS011;10873;51.132;16.848;2023-04-25T04:57:30;2.75;;;1.25;;
21424;SDS011;10873;51.132;16.848;2023-04-25T04:59:58;8.68;;;2.05;;
21424;SDS011;10873;51.132;16.848;2023-04-25T05:02:24;3.88;;;1.70;;
21424;SDS011;10873;51.132;16.848;2023-04-25T05:04:52;9.13;;;1.88;;
21424;SDS011;10873;51.132;16.848;2023-04-25T05:07:18;6.47;;;1.63;;
21424;SDS011;10873;51.132;16.848;2023-04-25T05:09:44;3.08;;;1.80;;
21424;SDS011;10873;51.132;16.848;2023-04-25T05:12:10;2.97;;;1.98;;
21424;SDS011;10873;51.132;16.848;2023-04-25T05:14:36;3.00;;;1.80;;
21424;SDS011;10873;51.132;16.848;2023-04-25T05:17:03;5.05;;;1.85;;
21424;SDS011;10873;51.132;16.848;2023-04-25T05:19:32;5.00;;;2.03;;
21424;SDS011;10873;51.132;16.848;2023-04-25T05:21:59;3.40;;;1.80;;
21424;SDS011;10873;51.132;16.848;2023-04-25T05:24:25;4.72;;;1.75;;
21424;SDS011;10873;51.132;16.848;2023-04-25T05:26:51;6.72;;;1.80;;
21424;SDS011;10873;51.132;16.848;2023-04-25T05:29:18;3.85;;;1.90;;
21424;SDS011;10873;51.132;16.848;2023-04-25T05:31:44;3.78;;;1.50;;
21424;SDS011;10873;51.132;16.848;2023-04-25T05:34:11;4.88;;;1.73;;
21424;SDS011;10873;51.132;16.848;2023-04-25T05:36:36;4.75;;;1.90;;
21424;SDS011;10873;51.132;16.848;2023-04-25T05:39:04;3.95;;;1.60;;
21424;SDS011;10873;51.132;16.848;2023-04-25T05:41:31;2.53;;;1.67;;
21424;SDS011;10873;51.132;16.848;2023-04-25T05:43:57;3.92;;;2.10;;
21424;SDS011;10873;51.132;16.848;2023-04-25T05:46:23;4.90;;;1.70;;
21424;SDS011;10873;51.132;16.848;2023-04-25T05:48:49;2.75;;;1.73;;
21424;SDS011;10873;51.132;16.848;2023-04-25T05:51:15;4.07;;;1.83;;
21424;SDS011;10873;51.132;16.848;2023-04-25T05:53:41;4.22;;;1.70;;
21424;SDS011;10873;51.132;16.848;2023-04-25T05:56:09;4.55;;;1.95;;
21424;SDS011;10873;51.132;16.848;2023-04-25T05:58:35;3.03;;;1.77;;
21424;SDS011;10873;51.132;16.848;2023-04-25T06:01:01;2.50;;;1.70;;
21424;SDS011;10873;51.132;16.848;2023-04-25T06:03:28;4.10;;;1.60;;
21424;SDS011;10873;51.132;16.848;2023-04-25T06:05:54;3.10;;;1.70;;
21424;SDS011;10873;51.132;16.848;2023-04-25T06:08:20;2.70;;;1.60;;
21424;SDS011;10873;51.132;16.848;2023-04-25T06:10:46;2.30;;;1.40;;
21424;SDS011;10873;51.132;16.848;2023-04-25T06:13:13;2.28;;;1.58;;
21424;SDS011;10873;51.132;16.848;2023-04-25T06:15:40;3.22;;;1.70;;
21424;SDS011;10873;51.132;16.848;2023-04-25T06:18:07;4.35;;;1.73;;
21424;SDS011;10873;51.132;16.848;2023-04-25T06:20:33;2.60;;;1.60;;
21424;SDS011;10873;51.132;16.848;2023-04-25T06:22:59;2.10;;;1.60;;
21424;SDS011;10873;51.132;16.848;2023-04-25T06:25:25;3.72;;;1.60;;
21424;SDS011;10873;51.132;16.848;2023-04-25T06:27:51;2.20;;;1.40;;
21424;SDS011;10873;51.132;16.848;2023-04-25T06:30:18;2.85;;;1.70;;
21424;SDS011;10873;51.132;16.848;2023-04-25T06:32:47;2.13;;;1.42;;
21424;SDS011;10873;51.132;16.848;2023-04-25T06:35:13;2.13;;;1.60;;
21424;SDS011;10873;51.132;16.848;2023-04-25T06:37:40;2.42;;;1.60;;
21424;SDS011;10873;51.132;16.848;2023-04-25T06:40:07;2.35;;;1.60;;
21424;SDS011;10873;51.132;16.848;2023-04-25T06:42:34;2.78;;;1.67;;
21424;SDS011;10873;51.132;16.848;2023-04-25T06:45:00;2.83;;;1.63;;
21424;SDS011;10873;51.132;16.848;2023-04-25T06:47:27;2.85;;;1.50;;
21424;SDS011;10873;51.132;16.848;2023-04-25T06:49:54;2.85;;;1.55;;
21424;SDS011;10873;51.132;16.848;2023-04-25T06:52:21;2.40;;;1.42;;
21424;SDS011;10873;51.132;16.848;2023-04-25T06:54:46;2.30;;;1.35;;
21424;SDS011;10873;51.132;16.848;2023-04-25T06:57:13;2.38;;;1.50;;
21424;SDS011;10873;51.132;16.848;2023-04-25T06:59:38;3.00;;;1.35;;
21424;SDS011;10873;51.132;16.848;2023-04-25T07:02:05;4.85;;;1.40;;
21424;SDS011;10873;51.132;16.848;2023-04-25T07:04:32;1.75;;;1.10;;
21424;SDS011;10873;51.132;16.848;2023-04-25T07:06:58;1.70;;;1.45;;
21424;SDS011;10873;51.132;16.848;2023-04-25T07:09:26;2.25;;;1.50;;
21424;SDS011;10873;51.132;16.848;2023-04-25T07:11:52;3.83;;;1.48;;
21424;SDS011;10873;51.132;16.848;2023-04-25T07:14:18;1.92;;;1.23;;
21424;SDS011;10873;51.132;16.848;2023-04-25T07:16:44;3.58;;;1.70;;
21424;SDS011;10873;51.132;16.848;2023-04-25T07:19:10;2.05;;;1.33;;
21424;SDS011;10873;51.132;16.848;2023-04-25T07:21:37;3.72;;;1.63;;
21424;SDS011;10873;51.132;16.848;2023-04-25T07:24:04;2.15;;;1.20;;
21424;SDS011;10873;51.132;16.848;2023-04-25T07:26:31;5.70;;;1.67;;
21424;SDS011;10873;51.132;16.848;2023-04-25T07:28:56;2.88;;;1.67;;
21424;SDS011;10873;51.132;16.848;2023-04-25T07:31:23;3.45;;;1.60;;
21424;SDS011;10873;51.132;16.848;2023-04-25T07:33:49;3.95;;;1.38;;
21424;SDS011;10873;51.132;16.848;2023-04-25T07:36:15;2.60;;;1.38;;
21424;SDS011;10873;51.132;16.848;2023-04-25T07:38:43;2.22;;;1.23;;
21424;SDS011;10873;51.132;16.848;2023-04-25T07:41:09;1.15;;;1.05;;
21424;SDS011;10873;51.132;16.848;2023-04-25T07:43:35;2.42;;;1.48;;
21424;SDS011;10873;51.132;16.848;2023-04-25T07:46:01;1.60;;;1.33;;
21424;SDS011;10873;51.132;16.848;2023-04-25T07:48:27;2.05;;;1.48;;
21424;SDS011;10873;51.132;16.848;2023-04-25T07:50:54;2.63;;;1.52;;
21424;SDS011;10873;51.132;16.848;2023-04-25T07:53:19;2.35;;;1.27;;
21424;SDS011;10873;51.132;16.848;2023-04-25T07:55:47;2.58;;;1.30;;
21424;SDS011;10873;51.132;16.848;2023-04-25T07:58:13;3.55;;;1.70;;
21424;SDS011;10873;51.132;16.848;2023-04-25T08:00:40;2.45;;;1.42;;
21424;SDS011;10873;51.132;16.848;2023-04-25T08:03:09;1.90;;;1.33;;
21424;SDS011;10873;51.132;16.848;2023-04-25T08:05:35;2.50;;;1.38;;
21424;SDS011;10873;51.132;16.848;2023-04-25T08:08:01;3.10;;;1.48;;
21424;SDS011;10873;51.132;16.848;2023-04-25T08:10:27;2.03;;;1.40;;
21424;SDS011;10873;51.132;16.848;2023-04-25T08:12:55;1.90;;;1.50;;
21424;SDS011;10873;51.132;16.848;2023-04-25T08:15:21;3.42;;;1.60;;
21424;SDS011;10873;51.132;16.848;2023-04-25T08:17:47;3.05;;;1.40;;
21424;SDS011;10873;51.132;16.848;2023-04-25T08:20:13;2.33;;;1.30;;
21424;SDS011;10873;51.132;16.848;2023-04-25T08:22:39;2.53;;;1.30;;
21424;SDS011;10873;51.132;16.848;2023-04-25T08:25:05;2.78;;;1.40;;
21424;SDS011;10873;51.132;16.848;2023-04-25T08:27:32;2.05;;;1.42;;
21424;SDS011;10873;51.132;16.848;2023-04-25T08:30:00;2.35;;;1.55;;
21424;SDS011;10873;51.132;16.848;2023-04-25T08:32:26;2.22;;;1.70;;
21424;SDS011;10873;51.132;16.848;2023-04-25T08:34:52;1.75;;;1.42;;
21424;SDS011;10873;51.132;16.848;2023-04-25T08:37:19;1.83;;;1.58;;
21424;SDS011;10873;51.132;16.848;2023-04-25T08:39:46;2.80;;;1.58;;
21424;SDS011;10873;51.132;16.848;2023-04-25T08:42:13;2.00;;;1.30;;
21424;SDS011;10873;51.132;16.848;2023-04-25T08:44:41;2.13;;;1.60;;
21424;SDS011;10873;51.132;16.848;2023-04-25T08:47:08;3.47;;;1.85;;
21424;SDS011;10873;51.132;16.848;2023-04-25T08:49:34;2.60;;;1.63;;
21424;SDS011;10873;51.132;16.848;2023-04-25T08:52:00;2.65;;;1.67;;
21424;SDS011;10873;51.132;16.848;2023-04-25T08:54:29;2.67;;;1.60;;
21424;SDS011;10873;51.132;16.848;2023-04-25T08:56:56;3.95;;;1.77;;
21424;SDS011;10873;51.132;16.848;2023-04-25T08:59:27;2.30;;;1.85;;
21424;SDS011;10873;51.132;16.848;2023-04-25T09:01:54;2.00;;;1.60;;
21424;SDS011;10873;51.132;16.848;2023-04-25T09:04:22;2.75;;;1.88;;
21424;SDS011;10873;51.132;16.848;2023-04-25T09:06:48;2.33;;;1.52;;
21424;SDS011;10873;51.132;16.848;2023-04-25T09:09:14;3.28;;;1.55;;
21424;SDS011;10873;51.132;16.848;2023-04-25T09:11:41;3.28;;;1.83;;
21424;SDS011;10873;51.132;16.848;2023-04-25T09:14:14;3.13;;;1.58;;
21424;SDS011;10873;51.132;16.848;2023-04-25T09:19:28;2.50;;;1.58;;
21424;SDS011;10873;51.132;16.848;2023-04-25T09:21:55;2.70;;;1.63;;
21424;SDS011;10873;51.132;16.848;2023-04-25T09:24:29;2.28;;;1.52;;
21424;SDS011;10873;51.132;16.848;2023-04-25T09:26:57;2.55;;;1.48;;
21424;SDS011;10873;51.132;16.848;2023-04-25T09:29:28;3.53;;;1.70;;
21424;SDS011;10873;51.132;16.848;2023-04-25T09:32:03;1.90;;;1.50;;
21424;SDS011;10873;51.132;16.848;2023-04-25T09:34:45;2.28;;;1.75;;
21424;SDS011;10873;51.132;16.848;2023-04-25T09:37:19;2.28;;;1.50;;
21424;SDS011;10873;51.132;16.848;2023-04-25T09:39:46;3.95;;;2.05;;
21424;SDS011;10873;51.132;16.848;2023-04-25T09:42:13;3.20;;;1.88;;
21424;SDS011;10873;51.132;16.848;2023-04-25T09:44:44;1.60;;;1.50;;
21424;SDS011;10873;51.132;16.848;2023-04-25T09:47:11;2.15;;;1.60;;
21424;SDS011;10873;51.132;16.848;2023-04-25T09:49:39;2.50;;;1.77;;
21424;SDS011;10873;51.132;16.848;2023-04-25T09:52:13;2.58;;;1.52;;
21424;SDS011;10873;51.132;16.848;2023-04-25T09:54:40;2.17;;;1.65;;
21424;SDS011;10873;51.132;16.848;2023-04-25T09:57:09;3.25;;;1.63;;
21424;SDS011;10873;51.132;16.848;2023-04-25T09:59:37;2.35;;;1.48;;
21424;SDS011;10873;51.132;16.848;2023-04-25T10:02:04;2.22;;;1.50;;
21424;SDS011;10873;51.132;16.848;2023-04-25T10:04:33;1.88;;;1.45;;
21424;SDS011;10873;51.132;16.848;2023-04-25T10:07:00;1.55;;;1.30;;
21424;SDS011;10873;51.132;16.848;2023-04-25T10:09:29;3.08;;;1.35;;
21424;SDS011;10873;51.132;16.848;2023-04-25T10:12:01;2.70;;;1.45;;
21424;SDS011;10873;51.132;16.848;2023-04-25T10:14:29;2.60;;;1.77;;
21424;SDS011;10873;51.132;16.848;2023-04-25T10:16:56;2.75;;;1.85;;
21424;SDS011;10873;51.132;16.848;2023-04-25T10:19:23;1.52;;;1.42;;
21424;SDS011;10873;51.132;16.848;2023-04-25T10:21:50;2.25;;;1.30;;
21424;SDS011;10873;51.132;16.848;2023-04-25T10:24:19;1.92;;;1.40;;
21424;SDS011;10873;51.132;16.848;2023-04-25T10:26:47;1.75;;;1.45;;
21424;SDS011;10873;51.132;16.848;2023-04-25T10:29:21;2.78;;;1.42;;
21424;SDS011;10873;51.132;16.848;2023-04-25T10:31:48;2.95;;;1.70;;
21424;SDS011;10873;51.132;16.848;2023-04-25T10:34:15;3.38;;;1.65;;
21424;SDS011;10873;51.132;16.848;2023-04-25T10:36:41;2.25;;;1.50;;
21424;SDS011;10873;51.132;16.848;2023-04-25T10:39:07;1.42;;;1.23;;
21424;SDS011;10873;51.132;16.848;2023-04-25T10:41:47;2.35;;;1.23;;
21424;SDS011;10873;51.132;16.848;2023-04-25T10:44:18;2.78;;;1.40;;
21424;SDS011;10873;51.132;16.848;2023-04-25T10:46:44;2.78;;;1.40;;
21424;SDS011;10873;51.132;16.848;2023-04-25T10:49:14;2.05;;;1.48;;
21424;SDS011;10873;51.132;16.848;2023-04-25T10:54:39;1.85;;;1.45;;
21424;SDS011;10873;51.132;16.848;2023-04-25T10:57:07;3.13;;;1.60;;
21424;SDS011;10873;51.132;16.848;2023-04-25T10:59:57;3.10;;;1.40;;
21424;SDS011;10873;51.132;16.848;2023-04-25T11:02:26;1.45;;;1.20;;
21424;SDS011;10873;51.132;16.848;2023-04-25T11:04:53;2.30;;;1.40;;
21424;SDS011;10873;51.132;16.848;2023-04-25T11:07:23;1.85;;;1.20;;
21424;SDS011;10873;51.132;16.848;2023-04-25T11:10:00;2.25;;;1.35;;
21424;SDS011;10873;51.132;16.848;2023-04-25T11:12:29;3.92;;;1.30;;
21424;SDS011;10873;51.132;16.848;2023-04-25T11:15:00;1.33;;;1.13;;
21424;SDS011;10873;51.132;16.848;2023-04-25T11:17:27;1.27;;;1.17;;
21424;SDS011;10873;51.132;16.848;2023-04-25T11:19:54;2.03;;;1.15;;
21424;SDS011;10873;51.132;16.848;2023-04-25T11:22:21;1.98;;;1.20;;
21424;SDS011;10873;51.132;16.848;2023-04-25T11:24:48;2.28;;;1.17;;
21424;SDS011;10873;51.132;16.848;2023-04-25T11:27:14;1.63;;;1.25;;
21424;SDS011;10873;51.132;16.848;2023-04-25T11:29:41;2.35;;;1.30;;
21424;SDS011;10873;51.132;16.848;2023-04-25T11:32:07;2.53;;;1.48;;
21424;SDS011;10873;51.132;16.848;2023-04-25T11:34:33;1.35;;;1.25;;
21424;SDS011;10873;51.132;16.848;2023-04-25T11:37:00;2.00;;;1.20;;
21424;SDS011;10873;51.132;16.848;2023-04-25T11:39:27;1.38;;;1.20;;
21424;SDS011;10873;51.132;16.848;2023-04-25T11:41:54;1.00;;;1.00;;
21424;SDS011;10873;51.132;16.848;2023-04-25T11:44:20;1.77;;;1.10;;
21424;SDS011;10873;51.132;16.848;2023-04-25T11:46:48;1.10;;;0.95;;
21424;SDS011;10873;51.132;16.848;2023-04-25T11:49:14;2.22;;;1.30;;
21424;SDS011;10873;51.132;16.848;2023-04-25T11:51:43;1.65;;;1.17;;
21424;SDS011;10873;51.132;16.848;2023-04-25T11:54:10;1.73;;;1.00;;
21424;SDS011;10873;51.132;16.848;2023-04-25T11:56:37;1.40;;;1.10;;
21424;SDS011;10873;51.132;16.848;2023-04-25T11:59:06;3.08;;;1.10;;
21424;SDS011;10873;51.132;16.848;2023-04-25T12:01:32;2.28;;;1.00;;
21424;SDS011;10873;51.132;16.848;2023-04-25T12:04:10;1.55;;;1.20;;
21424;SDS011;10873;51.132;16.848;2023-04-25T12:06:37;1.17;;;1.00;;
21424;SDS011;10873;51.132;16.848;2023-04-25T12:09:07;1.38;;;1.05;;
21424;SDS011;10873;51.132;16.848;2023-04-25T12:11:40;1.55;;;1.00;;
21424;SDS011;10873;51.132;16.848;2023-04-25T12:14:06;2.13;;;1.23;;
21424;SDS011;10873;51.132;16.848;2023-04-25T12:16:39;1.50;;;0.98;;
21424;SDS011;10873;51.132;16.848;2023-04-25T12:19:07;1.63;;;1.10;;
21424;SDS011;10873;51.132;16.848;2023-04-25T12:21:34;2.20;;;1.30;;
21424;SDS011;10873;51.132;16.848;2023-04-25T12:24:10;1.63;;;1.10;;
21424;SDS011;10873;51.132;16.848;2023-04-25T12:26:47;1.50;;;1.10;;
21424;SDS011;10873;51.132;16.848;2023-04-25T12:29:16;1.38;;;1.10;;
21424;SDS011;10873;51.132;16.848;2023-04-25T12:31:43;2.22;;;1.10;;
21424;SDS011;10873;51.132;16.848;2023-04-25T12:34:09;1.65;;;1.00;;
21424;SDS011;10873;51.132;16.848;2023-04-25T12:36:36;1.50;;;1.10;;
21424;SDS011;10873;51.132;16.848;2023-04-25T12:39:03;1.65;;;1.20;;
21424;SDS011;10873;51.132;16.848;2023-04-25T12:41:29;1.13;;;0.98;;
21424;SDS011;10873;51.132;16.848;2023-04-25T12:43:55;1.45;;;1.00;;
21424;SDS011;10873;51.132;16.848;2023-04-25T12:46:21;1.17;;;1.00;;
21424;SDS011;10873;51.132;16.848;2023-04-25T12:48:50;1.48;;;1.00;;
21424;SDS011;10873;51.132;16.848;2023-04-25T12:51:16;1.38;;;1.20;;
21424;SDS011;10873;51.132;16.848;2023-04-25T12:53:44;1.75;;;0.95;;
21424;SDS011;10873;51.132;16.848;2023-04-25T12:56:10;1.13;;;1.02;;
21424;SDS011;10873;51.132;16.848;2023-04-25T12:58:37;2.58;;;1.20;;
21424;SDS011;10873;51.132;16.848;2023-04-25T13:01:02;1.55;;;1.23;;
21424;SDS011;10873;51.132;16.848;2023-04-25T13:03:29;1.38;;;1.17;;
21424;SDS011;10873;51.132;16.848;2023-04-25T13:05:55;1.20;;;0.90;;
21424;SDS011;10873;51.132;16.848;2023-04-25T13:08:21;0.98;;;0.82;;
21424;SDS011;10873;51.132;16.848;2023-04-25T13:10:48;1.27;;;1.00;;
21424;SDS011;10873;51.132;16.848;2023-04-25T13:13:14;2.05;;;0.93;;
21424;SDS011;10873;51.132;16.848;2023-04-25T13:15:41;1.90;;;1.30;;
21424;SDS011;10873;51.132;16.848;2023-04-25T13:18:08;1.27;;;1.10;;
21424;SDS011;10873;51.132;16.848;2023-04-25T13:20:33;1.20;;;1.00;;
21424;SDS011;10873;51.132;16.848;2023-04-25T13:23:00;1.08;;;0.95;;
21424;SDS011;10873;51.132;16.848;2023-04-25T13:25:26;1.38;;;1.05;;
21424;SDS011;10873;51.132;16.848;2023-04-25T13:27:53;2.00;;;1.13;;
21424;SDS011;10873;51.132;16.848;2023-04-25T13:30:19;2.58;;;1.85;;
21424;SDS011;10873;51.132;16.848;2023-04-25T13:32:46;3.83;;;2.50;;
21424;SDS011;10873;51.132;16.848;2023-04-25T13:35:12;4.05;;;2.50;;
21424;SDS011;10873;51.132;16.848;2023-04-25T13:37:39;3.35;;;2.10;;
21424;SDS011;10873;51.132;16.848;2023-04-25T13:40:07;1.98;;;1.65;;
21424;SDS011;10873;51.132;16.848;2023-04-25T13:42:35;2.65;;;1.50;;
21424;SDS011;10873;51.132;16.848;2023-04-25T13:45:03;3.42;;;1.50;;
21424;SDS011;10873;51.132;16.848;2023-04-25T13:47:30;1.80;;;1.20;;
21424;SDS011;10873;51.132;16.848;2023-04-25T13:49:56;3.75;;;1.33;;
21424;SDS011;10873;51.132;16.848;2023-04-25T13:52:22;1.70;;;1.48;;
21424;SDS011;10873;51.132;16.848;2023-04-25T13:54:49;2.72;;;1.52;;
21424;SDS011;10873;51.132;16.848;2023-04-25T13:57:16;2.65;;;1.17;;
21424;SDS011;10873;51.132;16.848;2023-04-25T13:59:42;2.88;;;1.30;;
21424;SDS011;10873;51.132;16.848;2023-04-25T14:02:10;2.97;;;2.13;;
21424;SDS011;10873;51.132;16.848;2023-04-25T14:04:36;3.25;;;1.27;;
21424;SDS011;10873;51.132;16.848;2023-04-25T14:07:02;1.73;;;1.30;;
21424;SDS011;10873;51.132;16.848;2023-04-25T14:09:28;3.95;;;1.40;;
21424;SDS011;10873;51.132;16.848;2023-04-25T14:11:55;6.45;;;1.25;;
21424;SDS011;10873;51.132;16.848;2023-04-25T14:14:21;5.32;;;1.20;;
21424;SDS011;10873;51.132;16.848;2023-04-25T14:16:49;1.42;;;1.20;;
21424;SDS011;10873;51.132;16.848;2023-04-25T14:19:17;1.35;;;0.90;;
21424;SDS011;10873;51.132;16.848;2023-04-25T14:21:43;4.88;;;1.42;;
21424;SDS011;10873;51.132;16.848;2023-04-25T14:24:09;2.45;;;1.33;;
21424;SDS011;10873;51.132;16.848;2023-04-25T14:26:39;3.65;;;1.15;;
21424;SDS011;10873;51.132;16.848;2023-04-25T14:29:06;4.32;;;1.55;;
21424;SDS011;10873;51.132;16.848;2023-04-25T14:31:33;5.43;;;1.33;;
21424;SDS011;10873;51.132;16.848;2023-04-25T14:33:59;4.68;;;1.40;;
21424;SDS011;10873;51.132;16.848;2023-04-25T14:36:26;3.50;;;1.30;;
21424;SDS011;10873;51.132;16.848;2023-04-25T14:38:53;2.15;;;1.20;;